createdAt,value
2022-12-09T17:39:08.168Z,91.16
2022-12-09T17:42:12.011Z,88.01
2022-12-09T17:45:16.704Z,87.92
2022-12-09T17:48:20.410Z,85.42
2022-12-09T17:51:24.043Z,85.10
2022-12-09T17:54:29.743Z,85.19
2022-12-09T17:57:33.815Z,85.46
2022-12-09T18:00:39.648Z,86.33
2022-12-09T18:04:02.877Z,87.74
2022-12-09T18:07:07.152Z,87.97
2022-12-09T18:10:12.754Z,86.34
2022-12-09T18:13:17.217Z,85.73
2022-12-09T18:16:21.684Z,87.10
2022-12-09T18:19:25.595Z,86.60
2022-12-09T18:22:29.294Z,85.43
2022-12-09T18:25:34.420Z,85.27
2022-12-09T18:28:38.818Z,85.67
2022-12-09T18:31:45.588Z,85.66
2022-12-09T18:34:49.426Z,85.76
2022-12-09T18:37:53.386Z,84.88
2022-12-09T18:41:04.134Z,85.04
2022-12-09T18:44:08.737Z,86.29
2022-12-09T18:47:12.472Z,85.71
2022-12-09T18:50:16.245Z,83.90
2022-12-09T18:53:19.874Z,84.39
2022-12-09T18:56:25.072Z,87.39
2022-12-09T18:59:29.010Z,87.42
2022-12-09T19:02:32.797Z,85.98
2022-12-09T19:05:38.861Z,86.47
2022-12-09T19:08:42.562Z,87.57
2022-12-09T19:11:49.508Z,85.80
2022-12-09T19:14:53.176Z,85.15
2022-12-09T19:17:56.885Z,84.38
2022-12-09T19:21:08.971Z,84.39
2022-12-09T19:24:15.259Z,82.22
2022-12-09T19:27:20.243Z,81.42
2022-12-09T19:30:24.277Z,83.15
2022-12-09T19:33:27.891Z,82.29
2022-12-09T19:36:34.186Z,80.55
2022-12-09T19:39:42.075Z,80.80
2022-12-09T19:42:47.054Z,80.29
2022-12-09T19:45:50.691Z,81.31
2022-12-09T19:48:54.910Z,81.92
2022-12-09T19:51:59.941Z,81.76
2022-12-09T19:55:03.746Z,83.13
2022-12-09T19:58:09.111Z,84.82
2022-12-09T20:01:17.039Z,84.96
2022-12-09T20:04:48.211Z,85.19
2022-12-09T20:07:46.484Z,85.02
2022-12-09T20:10:50.367Z,85.63
2022-12-09T20:13:57.761Z,84.00
2022-12-09T20:17:01.394Z,86.18
2022-12-09T20:20:06.079Z,86.07
2022-12-09T20:23:10.199Z,85.87
2022-12-09T20:26:15.781Z,86.06
2022-12-09T20:29:20.811Z,86.86
2022-12-09T20:32:24.486Z,85.34
2022-12-09T20:35:28.194Z,85.33
2022-12-09T20:38:31.884Z,84.48
2022-12-09T20:41:35.588Z,85.17
2022-12-09T20:44:40.606Z,83.86
2022-12-09T20:47:44.255Z,82.56
2022-12-09T20:50:47.921Z,84.17
2022-12-09T20:53:52.402Z,83.39
2022-12-09T20:56:56.147Z,84.55
2022-12-09T21:00:01.652Z,85.03
2022-12-09T21:03:05.521Z,83.63
2022-12-09T21:06:09.673Z,83.23
2022-12-09T21:09:17.510Z,81.23
2022-12-09T21:12:21.387Z,79.48
2022-12-09T21:15:27.812Z,79.24
2022-12-09T21:18:31.640Z,81.63
2022-12-09T21:21:37.128Z,82.16
2022-12-09T21:24:40.809Z,83.52
2022-12-09T21:27:44.477Z,83.85
2022-12-09T21:30:49.516Z,84.87
2022-12-09T21:33:55.788Z,84.52
2022-12-09T21:36:59.513Z,83.22
2022-12-09T21:40:03.305Z,83.20
2022-12-09T21:43:07.165Z,83.24
2022-12-09T21:46:14.381Z,83.59
2022-12-09T21:49:18.081Z,83.21
2022-12-09T21:52:21.731Z,82.95
2022-12-09T21:55:25.377Z,83.26
2022-12-09T21:58:31.308Z,83.27
2022-12-09T22:01:38.685Z,82.65
2022-12-09T22:04:42.842Z,82.22
2022-12-09T22:07:49.823Z,82.40
2022-12-09T22:10:54.807Z,80.93
2022-12-09T22:14:00.082Z,83.25
2022-12-09T22:17:05.163Z,83.72
2022-12-09T22:23:34.065Z,84.71
2022-12-09T22:26:38.337Z,84.38
2022-12-09T22:29:42.036Z,84.61
2022-12-09T22:32:50.742Z,83.97
2022-12-09T22:35:54.779Z,84.65
2022-12-09T22:38:58.650Z,83.69
2022-12-09T22:42:02.296Z,84.63
2022-12-09T22:45:06.957Z,85.16
2022-12-09T22:48:12.000Z,85.29
2022-12-09T22:51:18.007Z,84.66
2022-12-09T22:54:23.300Z,83.71
2022-12-09T22:57:26.940Z,83.94
2022-12-09T23:00:30.732Z,83.17
2022-12-09T23:03:35.858Z,84.38
2022-12-09T23:06:40.702Z,84.95
2022-12-09T23:09:44.408Z,85.20
2022-12-09T23:12:48.102Z,85.82
2022-12-09T23:15:51.823Z,85.33
2022-12-09T23:18:59.021Z,83.51
2022-12-09T23:22:02.688Z,83.86
2022-12-09T23:25:07.503Z,82.91
2022-12-09T23:28:11.878Z,82.91
2022-12-09T23:31:17.444Z,81.88
2022-12-09T23:34:22.569Z,82.75
2022-12-09T23:37:26.250Z,81.70
